DLH9918 EDDM-EDDP
Flight info
| Callsign | DLH9918 |
|---|---|
| Flight time | 0h 35m |
| Altitude | 30000 |
| Route | INPUD2S INPUD Y102 UPALA M726 LASGA T953 VOCIM/N0445F290 T954 GOXLI GOXLI1R |
| Aircraft | A346/H-SDE2E3FGHIJ3J4J5M1RWXY/LB1D1 |
Departure
| Time | 2026-05-06 18:24 |
|---|---|
| Airport | Munich Airport (EDDM) |
Arrival
| Time | 2026-05-06 18:59 |
|---|---|
| Airport | Leipzig/Halle Airport (EDDP) |
| Time | Latitude | Longitude | Altitude | Speed | Heading |
|---|---|---|---|---|---|
| 2026-05-06 17:53 | 48.35411 | 11.79323 | 1494 ft | 0 kts | 270° |
| 2026-05-06 18:09 | 48.35411 | 11.79343 | 1477 ft | 4 kts | 270° |
| 2026-05-06 18:10 | 48.35410 | 11.79383 | 1494 ft | 4 kts | 270° |
| 2026-05-06 18:10 | 48.35410 | 11.79415 | 1494 ft | 4 kts | 279° |
| 2026-05-06 18:10 | 48.35402 | 11.79446 | 1488 ft | 4 kts | 308° |
| 2026-05-06 18:10 | 48.35387 | 11.79464 | 1494 ft | 4 kts | 343° |
| 2026-05-06 18:11 | 48.35364 | 11.79470 | 1477 ft | 4 kts | 353° |
| 2026-05-06 18:11 | 48.35340 | 11.79474 | 1478 ft | 1 kts | 353° |
| 2026-05-06 18:11 | 48.35339 | 11.79474 | 1494 ft | 0 kts | 353° |
| 2026-05-06 18:14 | 48.35341 | 11.79474 | 1494 ft | 1 kts | 353° |
| 2026-05-06 18:14 | 48.35367 | 11.79469 | 1487 ft | 8 kts | 353° |
| 2026-05-06 18:14 | 48.35456 | 11.79453 | 1480 ft | 16 kts | 353° |
| 2026-05-06 18:15 | 48.35571 | 11.79433 | 1481 ft | 12 kts | 353° |
| 2026-05-06 18:15 | 48.35642 | 11.79421 | 1482 ft | 8 kts | 353° |
| 2026-05-06 18:15 | 48.35684 | 11.79413 | 1481 ft | 0 kts | 353° |
| 2026-05-06 18:16 | 48.35685 | 11.79413 | 1494 ft | 2 kts | 353° |
| 2026-05-06 18:16 | 48.35759 | 11.79424 | 1491 ft | 15 kts | 18° |
| 2026-05-06 18:16 | 48.35863 | 11.79486 | 1481 ft | 15 kts | 18° |
| 2026-05-06 18:17 | 48.35948 | 11.79501 | 1481 ft | 12 kts | 358° |
| 2026-05-06 18:17 | 48.36005 | 11.79493 | 1480 ft | 8 kts | 354° |
| 2026-05-06 18:17 | 48.36020 | 11.79491 | 1482 ft | 0 kts | 354° |
| 2026-05-06 18:18 | 48.36023 | 11.79490 | 1483 ft | 2 kts | 354° |
| 2026-05-06 18:18 | 48.36057 | 11.79485 | 1487 ft | 9 kts | 354° |
| 2026-05-06 18:18 | 48.36140 | 11.79471 | 1490 ft | 11 kts | 353° |
| 2026-05-06 18:19 | 48.36196 | 11.79479 | 1477 ft | 6 kts | 39° |
| 2026-05-06 18:19 | 48.36218 | 11.79556 | 1494 ft | 10 kts | 75° |
| 2026-05-06 18:19 | 48.36230 | 11.79680 | 1491 ft | 13 kts | 83° |
| 2026-05-06 18:19 | 48.36243 | 11.79841 | 1489 ft | 17 kts | 83° |
| 2026-05-06 18:20 | 48.36258 | 11.80042 | 1494 ft | 21 kts | 83° |
| 2026-05-06 18:20 | 48.36277 | 11.80277 | 1490 ft | 24 kts | 83° |
| 2026-05-06 18:20 | 48.36296 | 11.80532 | 1488 ft | 26 kts | 83° |
| 2026-05-06 18:20 | 48.36317 | 11.80810 | 1490 ft | 28 kts | 83° |
| 2026-05-06 18:21 | 48.36340 | 11.81105 | 1494 ft | 29 kts | 83° |
| 2026-05-06 18:21 | 48.36364 | 11.81414 | 1486 ft | 30 kts | 83° |
| 2026-05-06 18:21 | 48.36387 | 11.81714 | 1490 ft | 26 kts | 83° |
| 2026-05-06 18:21 | 48.36393 | 11.81948 | 1482 ft | 20 kts | 92° |
| 2026-05-06 18:22 | 48.36417 | 11.82113 | 1481 ft | 13 kts | 45° |
| 2026-05-06 18:22 | 48.36509 | 11.82126 | 1492 ft | 15 kts | 354° |
| 2026-05-06 18:22 | 48.36619 | 11.82079 | 1483 ft | 18 kts | 321° |
| 2026-05-06 18:22 | 48.36673 | 11.81901 | 1491 ft | 20 kts | 272° |
| 2026-05-06 18:23 | 48.36655 | 11.81681 | 1486 ft | 26 kts | 262° |
| 2026-05-06 18:23 | 48.36605 | 11.81049 | 1491 ft | 93 kts | 263° |
| 2026-05-06 18:23 | 48.36507 | 11.79780 | 1482 ft | 148 kts | 263° |
| 2026-05-06 18:23 | 48.36387 | 11.78102 | 1858 ft | 169 kts | 263° |
| 2026-05-06 18:24 | 48.36271 | 11.76290 | 2581 ft | 177 kts | 264° |
| 2026-05-06 18:24 | 48.36161 | 11.74460 | 3464 ft | 173 kts | 263° |
| 2026-05-06 18:24 | 48.35982 | 11.72626 | 4070 ft | 183 kts | 262° |
| 2026-05-06 18:24 | 48.35772 | 11.70667 | 4489 ft | 200 kts | 262° |
| 2026-05-06 18:25 | 48.35822 | 11.68508 | 4928 ft | 218 kts | 287° |
| 2026-05-06 18:25 | 48.36648 | 11.66572 | 5753 ft | 225 kts | 311° |
| 2026-05-06 18:25 | 48.38046 | 11.65298 | 6417 ft | 251 kts | 337° |
| 2026-05-06 18:25 | 48.39832 | 11.64685 | 6781 ft | 272 kts | 343° |
| 2026-05-06 18:26 | 48.41749 | 11.64141 | 7244 ft | 286 kts | 344° |
| 2026-05-06 18:26 | 48.43706 | 11.63598 | 8249 ft | 286 kts | 344° |
| 2026-05-06 18:26 | 48.45667 | 11.63043 | 9221 ft | 290 kts | 344° |
| 2026-05-06 18:26 | 48.47680 | 11.62458 | 10038 ft | 298 kts | 344° |
| 2026-05-06 18:27 | 48.49734 | 11.61853 | 10867 ft | 304 kts | 345° |
| 2026-05-06 18:27 | 48.51821 | 11.61230 | 11753 ft | 307 kts | 346° |
| 2026-05-06 18:27 | 48.53933 | 11.60611 | 12713 ft | 311 kts | 346° |
| 2026-05-06 18:27 | 48.56104 | 11.60041 | 13469 ft | 325 kts | 348° |
| 2026-05-06 18:28 | 48.58399 | 11.59491 | 13966 ft | 343 kts | 348° |
| 2026-05-06 18:28 | 48.60824 | 11.58919 | 14412 ft | 361 kts | 348° |
| 2026-05-06 18:28 | 48.63372 | 11.58315 | 14831 ft | 380 kts | 349° |
| 2026-05-06 18:28 | 48.66048 | 11.57675 | 15237 ft | 398 kts | 349° |
| 2026-05-06 18:29 | 48.68852 | 11.57003 | 15677 ft | 414 kts | 349° |
| 2026-05-06 18:29 | 48.71728 | 11.56312 | 16401 ft | 421 kts | 349° |
| 2026-05-06 18:29 | 48.74631 | 11.55614 | 17321 ft | 424 kts | 349° |
| 2026-05-06 18:29 | 48.77556 | 11.54911 | 18219 ft | 426 kts | 349° |
| 2026-05-06 18:30 | 48.80506 | 11.54198 | 18921 ft | 431 kts | 349° |
| 2026-05-06 18:30 | 48.83448 | 11.53485 | 19578 ft | 437 kts | 349° |
| 2026-05-06 18:30 | 48.86492 | 11.52746 | 20286 ft | 442 kts | 349° |
| 2026-05-06 18:30 | 48.89531 | 11.52007 | 20938 ft | 447 kts | 349° |
| 2026-05-06 18:31 | 48.92633 | 11.51252 | 21565 ft | 452 kts | 349° |
| 2026-05-06 18:31 | 48.95761 | 11.50490 | 22174 ft | 457 kts | 349° |
| 2026-05-06 18:31 | 48.98910 | 11.49730 | 22826 ft | 461 kts | 348° |
| 2026-05-06 18:31 | 49.02080 | 11.48947 | 23449 ft | 465 kts | 349° |
| 2026-05-06 18:32 | 49.05299 | 11.48154 | 23959 ft | 471 kts | 349° |
| 2026-05-06 18:32 | 49.07451 | 11.47626 | 24311 ft | 474 kts | 349° |
| 2026-05-06 18:32 | 49.10733 | 11.46823 | 24850 ft | 479 kts | 349° |
| 2026-05-06 18:32 | 49.14038 | 11.46013 | 25385 ft | 483 kts | 349° |
| 2026-05-06 18:33 | 49.17388 | 11.45190 | 25904 ft | 488 kts | 349° |
| 2026-05-06 18:33 | 49.20757 | 11.44366 | 26439 ft | 492 kts | 348° |
| 2026-05-06 18:33 | 49.24109 | 11.43541 | 27034 ft | 494 kts | 348° |
| 2026-05-06 18:33 | 49.27542 | 11.42693 | 27818 ft | 493 kts | 348° |
| 2026-05-06 18:34 | 49.30924 | 11.41856 | 28571 ft | 493 kts | 348° |
| 2026-05-06 18:34 | 49.34271 | 11.41025 | 29157 ft | 496 kts | 348° |
| 2026-05-06 18:34 | 49.37700 | 11.40172 | 29648 ft | 501 kts | 347° |
| 2026-05-06 18:34 | 49.41153 | 11.39311 | 29809 ft | 505 kts | 347° |
| 2026-05-06 18:35 | 49.48063 | 11.37592 | 29802 ft | 501 kts | 347° |
| 2026-05-06 18:35 | 49.54948 | 11.35872 | 29792 ft | 500 kts | 347° |
| 2026-05-06 18:36 | 49.61819 | 11.34150 | 29793 ft | 501 kts | 347° |
| 2026-05-06 18:36 | 49.68691 | 11.32429 | 29806 ft | 499 kts | 347° |
| 2026-05-06 18:37 | 49.75567 | 11.30684 | 29799 ft | 501 kts | 348° |
| 2026-05-06 18:37 | 49.82452 | 11.28953 | 29795 ft | 501 kts | 348° |
| 2026-05-06 18:38 | 49.89337 | 11.27216 | 29803 ft | 500 kts | 348° |
| 2026-05-06 18:38 | 49.96185 | 11.25482 | 29706 ft | 494 kts | 348° |
| 2026-05-06 18:39 | 49.99565 | 11.24621 | 28968 ft | 493 kts | 348° |
| 2026-05-06 18:39 | 50.02965 | 11.23749 | 27638 ft | 503 kts | 348° |
| 2026-05-06 18:39 | 50.06459 | 11.23031 | 26781 ft | 506 kts | 352° |
| 2026-05-06 18:40 | 50.13412 | 11.22562 | 25727 ft | 493 kts | 358° |
| 2026-05-06 18:40 | 50.16820 | 11.22582 | 25229 ft | 487 kts | 358° |
| 2026-05-06 18:40 | 50.20181 | 11.22629 | 24751 ft | 480 kts | 358° |
| 2026-05-06 18:40 | 50.23498 | 11.22674 | 24278 ft | 473 kts | 358° |
| 2026-05-06 18:41 | 50.26771 | 11.22708 | 23794 ft | 467 kts | 358° |
| 2026-05-06 18:41 | 50.30001 | 11.22733 | 23227 ft | 462 kts | 358° |
| 2026-05-06 18:41 | 50.33203 | 11.22753 | 22589 ft | 458 kts | 358° |
| 2026-05-06 18:41 | 50.36374 | 11.22728 | 21959 ft | 453 kts | 356° |
| 2026-05-06 18:42 | 50.39504 | 11.22543 | 21339 ft | 448 kts | 355° |
| 2026-05-06 18:42 | 50.42555 | 11.22315 | 20831 ft | 441 kts | 355° |
| 2026-05-06 18:42 | 50.45603 | 11.22079 | 20401 ft | 434 kts | 355° |
| 2026-05-06 18:42 | 50.48594 | 11.21849 | 20009 ft | 426 kts | 355° |
| 2026-05-06 18:43 | 50.51526 | 11.21627 | 19447 ft | 416 kts | 355° |
| 2026-05-06 18:43 | 50.54372 | 11.21416 | 18938 ft | 404 kts | 355° |
| 2026-05-06 18:43 | 50.57146 | 11.21209 | 18442 ft | 393 kts | 355° |
| 2026-05-06 18:43 | 50.59866 | 11.21006 | 17328 ft | 392 kts | 356° |
| 2026-05-06 18:44 | 50.62596 | 11.20961 | 16231 ft | 390 kts | 5° |
| 2026-05-06 18:44 | 50.65209 | 11.21956 | 15453 ft | 385 kts | 21° |
| 2026-05-06 18:44 | 50.67649 | 11.23678 | 15287 ft | 381 kts | 24° |
| 2026-05-06 18:44 | 50.70033 | 11.25440 | 14936 ft | 375 kts | 24° |
| 2026-05-06 18:45 | 50.72377 | 11.27181 | 14626 ft | 368 kts | 24° |
| 2026-05-06 18:45 | 50.74651 | 11.28863 | 14315 ft | 363 kts | 24° |
| 2026-05-06 18:45 | 50.76919 | 11.30532 | 13971 ft | 357 kts | 24° |
| 2026-05-06 18:45 | 50.79164 | 11.32182 | 13650 ft | 352 kts | 24° |
| 2026-05-06 18:46 | 50.81381 | 11.33811 | 13294 ft | 348 kts | 24° |
| 2026-05-06 18:46 | 50.83567 | 11.35414 | 12939 ft | 343 kts | 24° |
| 2026-05-06 18:46 | 50.85720 | 11.36993 | 12590 ft | 338 kts | 24° |
| 2026-05-06 18:46 | 50.87843 | 11.38552 | 12193 ft | 335 kts | 24° |
| 2026-05-06 18:47 | 50.89950 | 11.40100 | 11775 ft | 334 kts | 24° |
| 2026-05-06 18:47 | 50.92056 | 11.41649 | 11354 ft | 332 kts | 24° |
| 2026-05-06 18:47 | 50.94136 | 11.43181 | 10893 ft | 326 kts | 24° |
| 2026-05-06 18:47 | 50.96171 | 11.44682 | 10346 ft | 316 kts | 24° |
| 2026-05-06 18:48 | 50.98123 | 11.46123 | 9744 ft | 309 kts | 24° |
| 2026-05-06 18:48 | 51.00037 | 11.47538 | 9251 ft | 298 kts | 24° |
| 2026-05-06 18:48 | 51.01893 | 11.48911 | 8713 ft | 291 kts | 24° |
| 2026-05-06 18:48 | 51.03702 | 11.50252 | 8191 ft | 284 kts | 24° |
| 2026-05-06 18:49 | 51.05486 | 11.51573 | 7793 ft | 280 kts | 24° |
| 2026-05-06 18:49 | 51.07249 | 11.52880 | 7438 ft | 279 kts | 24° |
| 2026-05-06 18:49 | 51.09009 | 11.54184 | 7090 ft | 278 kts | 24° |
| 2026-05-06 18:49 | 51.10731 | 11.55478 | 6759 ft | 276 kts | 27° |
| 2026-05-06 18:50 | 51.12302 | 11.57309 | 6409 ft | 276 kts | 41° |
| 2026-05-06 18:50 | 51.13675 | 11.59366 | 6081 ft | 274 kts | 44° |
| 2026-05-06 18:50 | 51.15047 | 11.61519 | 5734 ft | 272 kts | 44° |
| 2026-05-06 18:50 | 51.16388 | 11.63650 | 5411 ft | 271 kts | 44° |
| 2026-05-06 18:51 | 51.17692 | 11.65740 | 5082 ft | 269 kts | 44° |
| 2026-05-06 18:51 | 51.19081 | 11.67713 | 4768 ft | 266 kts | 36° |
| 2026-05-06 18:51 | 51.20557 | 11.69486 | 4464 ft | 264 kts | 34° |
| 2026-05-06 18:51 | 51.22035 | 11.71210 | 4137 ft | 262 kts | 34° |
| 2026-05-06 18:52 | 51.23505 | 11.72904 | 4033 ft | 260 kts | 34° |
| 2026-05-06 18:52 | 51.24977 | 11.74575 | 4024 ft | 260 kts | 34° |
| 2026-05-06 18:52 | 51.26452 | 11.76248 | 4019 ft | 260 kts | 34° |
| 2026-05-06 18:52 | 51.27929 | 11.77928 | 4018 ft | 260 kts | 34° |
| 2026-05-06 18:53 | 51.29405 | 11.79598 | 4015 ft | 260 kts | 34° |
| 2026-05-06 18:53 | 51.30880 | 11.81267 | 4014 ft | 260 kts | 34° |
| 2026-05-06 18:53 | 51.32363 | 11.82953 | 4013 ft | 260 kts | 34° |
| 2026-05-06 18:53 | 51.33833 | 11.84620 | 4008 ft | 254 kts | 34° |
| 2026-05-06 18:54 | 51.35258 | 11.86236 | 4002 ft | 248 kts | 34° |
| 2026-05-06 18:54 | 51.36654 | 11.87827 | 3734 ft | 246 kts | 34° |
| 2026-05-06 18:54 | 51.38056 | 11.89407 | 3436 ft | 245 kts | 34° |
| 2026-05-06 18:54 | 51.39446 | 11.90943 | 3187 ft | 242 kts | 34° |
| 2026-05-06 18:55 | 51.40834 | 11.92450 | 3022 ft | 238 kts | 36° |
| 2026-05-06 18:55 | 51.41921 | 11.94400 | 2990 ft | 235 kts | 66° |
| 2026-05-06 18:55 | 51.42229 | 11.96860 | 3014 ft | 219 kts | 89° |
| 2026-05-06 18:55 | 51.42224 | 11.99224 | 2990 ft | 205 kts | 90° |
| 2026-05-06 18:56 | 51.42240 | 12.01448 | 2939 ft | 194 kts | 88° |
| 2026-05-06 18:56 | 51.42308 | 12.03598 | 2715 ft | 191 kts | 86° |
| 2026-05-06 18:56 | 51.42399 | 12.05699 | 2439 ft | 186 kts | 85° |
| 2026-05-06 18:56 | 51.42492 | 12.07702 | 2153 ft | 174 kts | 86° |
| 2026-05-06 18:57 | 51.42576 | 12.09561 | 1906 ft | 160 kts | 86° |
| 2026-05-06 18:57 | 51.42653 | 12.11273 | 1702 ft | 148 kts | 85° |
| 2026-05-06 18:57 | 51.42725 | 12.12876 | 1505 ft | 145 kts | 85° |
| 2026-05-06 18:57 | 51.42800 | 12.14512 | 1336 ft | 145 kts | 85° |
| 2026-05-06 18:58 | 51.42871 | 12.16100 | 1154 ft | 144 kts | 85° |
| 2026-05-06 18:58 | 51.42944 | 12.17705 | 956 ft | 144 kts | 84° |
| 2026-05-06 18:58 | 51.43017 | 12.19301 | 738 ft | 143 kts | 84° |
| 2026-05-06 18:58 | 51.43093 | 12.20887 | 562 ft | 142 kts | 84° |
| 2026-05-06 18:59 | 51.43167 | 12.22453 | 449 ft | 135 kts | 84° |
| 2026-05-06 18:59 | 51.43224 | 12.23714 | 451 ft | 85 kts | 85° |
| 2026-05-06 18:59 | 51.43257 | 12.24400 | 450 ft | 47 kts | 85° |
| 2026-05-06 18:59 | 51.43280 | 12.24888 | 456 ft | 39 kts | 85° |
| 2026-05-06 19:00 | 51.43283 | 12.25268 | 458 ft | 29 kts | 97° |
| 2026-05-06 19:00 | 51.43233 | 12.25527 | 458 ft | 16 kts | 115° |
| 2026-05-06 19:00 | 51.43194 | 12.25660 | 459 ft | 10 kts | 116° |
| 2026-05-06 19:00 | 51.43159 | 12.25761 | 459 ft | 12 kts | 128° |
| 2026-05-06 19:01 | 51.43115 | 12.25803 | 459 ft | 7 kts | 176° |
| 2026-05-06 19:01 | 51.43057 | 12.25802 | 460 ft | 9 kts | 188° |
| 2026-05-06 19:01 | 51.43009 | 12.25724 | 459 ft | 12 kts | 255° |
| 2026-05-06 19:01 | 51.43000 | 12.25567 | 459 ft | 16 kts | 267° |
| 2026-05-06 19:02 | 51.42992 | 12.25379 | 459 ft | 17 kts | 264° |
| 2026-05-06 19:02 | 51.42982 | 12.25196 | 458 ft | 17 kts | 265° |
| 2026-05-06 19:02 | 51.42909 | 12.25076 | 457 ft | 18 kts | 194° |
| 2026-05-06 19:02 | 51.42784 | 12.25029 | 463 ft | 18 kts | 193° |
| 2026-05-06 19:03 | 51.42670 | 12.24985 | 470 ft | 16 kts | 193° |
| 2026-05-06 19:03 | 51.42565 | 12.24944 | 473 ft | 15 kts | 193° |
| 2026-05-06 19:03 | 51.42469 | 12.24908 | 482 ft | 14 kts | 193° |
| 2026-05-06 19:03 | 51.42382 | 12.24874 | 478 ft | 12 kts | 193° |
| 2026-05-06 19:04 | 51.42307 | 12.24845 | 487 ft | 12 kts | 193° |
| 2026-05-06 19:04 | 51.42220 | 12.24812 | 492 ft | 12 kts | 193° |
| 2026-05-06 19:04 | 51.42128 | 12.24776 | 500 ft | 16 kts | 193° |
| 2026-05-06 19:04 | 51.41993 | 12.24725 | 489 ft | 22 kts | 193° |
| 2026-05-06 19:05 | 51.41825 | 12.24661 | 486 ft | 28 kts | 193° |
| 2026-05-06 19:05 | 51.41692 | 12.24605 | 479 ft | 15 kts | 207° |
| 2026-05-06 19:05 | 51.41653 | 12.24449 | 480 ft | 18 kts | 263° |
| 2026-05-06 19:05 | 51.41642 | 12.24232 | 485 ft | 21 kts | 266° |
| 2026-05-06 19:06 | 51.41630 | 12.23982 | 483 ft | 25 kts | 265° |
| 2026-05-06 19:06 | 51.41616 | 12.23687 | 479 ft | 28 kts | 265° |
| 2026-05-06 19:06 | 51.41602 | 12.23386 | 471 ft | 28 kts | 266° |
| 2026-05-06 19:06 | 51.41615 | 12.23147 | 472 ft | 21 kts | 285° |
| 2026-05-06 19:07 | 51.41658 | 12.22888 | 464 ft | 27 kts | 285° |
| 2026-05-06 19:07 | 51.41693 | 12.22689 | 457 ft | 28 kts | 285° |
| 2026-05-06 19:07 | 51.41747 | 12.22375 | 430 ft | 19 kts | 285° |
| 2026-05-06 19:07 | 51.41778 | 12.22189 | 444 ft | 15 kts | 285° |
| 2026-05-06 19:08 | 51.41805 | 12.22044 | 437 ft | 8 kts | 298° |
| 2026-05-06 19:08 | 51.41844 | 12.22012 | 430 ft | 2 kts | 1° |
| 2026-05-06 19:08 | 51.41872 | 12.22019 | 432 ft | 5 kts | 11° |
| 2026-05-06 19:08 | 51.41887 | 12.22025 | 430 ft | 2 kts | 13° |
| 2026-05-06 19:09 | 51.41894 | 12.22027 | 431 ft | 0 kts | 14° |